Time;durP1;ratioP1;P1;durP2;ratioP2;P2;SDS_P1;SDS_P2;PMS_P1;PMS_P2;Temp;Humidity;BMP_temperature;BMP_pressure;BME280_temperature;BME280_humidity;BME280_pressure;Samples;Min_cycle;Max_cycle;Signal;HPM_P1;HPM_P2
2023/07/21 08:31:22;;;;;;;7.93;3.60;;;23.30;90.00;;;;;;5130378;27;20553;-58
2023/07/21 08:33:50;;;;;;;5.40;3.50;;;22.30;55.00;;;;;;5127027;27;20204;-57
2023/07/21 08:36:17;;;;;;;4.07;3.42;;;22.30;54.70;;;;;;5117898;28;20268;-56
2023/07/21 08:38:44;;;;;;;4.63;3.42;;;22.80;76.00;;;;;;5119373;27;20743;-56
2023/07/21 08:41:19;;;;;;;6.03;3.45;;;22.50;80.60;;;;;;5109488;28;20264;-57
2023/07/21 08:43:49;;;;;;;6.40;4.22;;;22.90;83.70;;;;;;5122834;27;20219;-57
2023/07/21 08:46:16;;;;;;;4.03;3.40;;;22.80;53.80;;;;;;5113636;28;20304;-56
2023/07/21 08:48:48;;;;;;;5.57;3.55;;;22.30;79.30;;;;;;5112734;27;20207;-57
2023/07/21 08:51:15;;;;;;;5.97;4.10;;;23.00;52.70;;;;;;5107683;28;20229;-57
2023/07/21 08:53:42;;;;;;;7.90;4.03;;;23.00;53.40;;;;;;5108817;27;20198;-57
2023/07/21 08:56:09;;;;;;;9.00;4.10;;;23.00;53.30;;;;;;5100427;28;20324;-57
2023/07/21 08:58:37;;;;;;;6.05;3.70;;;23.10;53.20;;;;;;5117978;27;20276;-57
2023/07/21 09:01:05;;;;;;;5.03;3.45;;;23.10;53.10;;;;;;5109779;28;20750;-56
2023/07/21 09:03:32;;;;;;;4.15;3.17;;;23.10;53.00;;;;;;5113428;28;20747;-57
2023/07/21 09:06:01;;;;;;;5.53;3.78;;;22.60;63.30;;;;;;5115069;28;20224;-57
2023/07/21 09:08:29;;;;;;;4.47;3.13;;;21.70;70.70;;;;;;5111568;28;20635;-57
2023/07/21 09:11:00;;;;;;;8.07;3.53;;;23.80;57.90;;;;;;5122348;28;20259;-55
2023/07/21 09:13:28;;;;;;;5.75;3.80;;;23.10;52.50;;;;;;5105633;28;20238;-57
2023/07/21 09:15:56;;;;;;;4.53;3.80;;;23.20;52.50;;;;;;5110697;28;20863;-57
2023/07/21 09:18:28;;;;;;;6.85;3.85;;;23.20;52.60;;;;;;5103016;28;20250;-56
2023/07/21 09:20:55;;;;;;;6.72;3.70;;;23.20;52.40;;;;;;5109741;28;20277;-57
2023/07/21 09:23:24;;;;;;;6.28;4.28;;;23.20;52.30;;;;;;5118371;28;20242;-56
2023/07/21 09:25:53;;;;;;;5.85;4.00;;;23.20;52.30;;;;;;5110730;28;20196;-55
2023/07/21 09:28:21;;;;;;;5.40;3.40;;;23.30;52.30;;;;;;5108832;28;20860;-55
2023/07/21 09:30:52;;;;;;;5.70;3.97;;;23.30;52.20;;;;;;5110811;28;20240;-56
2023/07/21 09:33:24;;;;;;;5.38;3.70;;;23.20;52.10;;;;;;5109658;28;20666;-57
2023/07/21 09:36:04;;;;;;;4.60;3.67;;;23.30;52.10;;;;;;5109044;28;20193;-56
2023/07/21 09:38:32;;;;;;;5.65;3.92;;;23.20;52.10;;;;;;5113148;28;20273;-57
2023/07/21 09:41:03;;;;;;;8.07;4.20;;;23.30;52.10;;;;;;5102999;28;20286;-57
2023/07/21 09:43:31;;;;;;;5.72;4.18;;;23.20;52.00;;;;;;5108065;28;20193;-55
2023/07/21 09:46:00;;;;;;;7.15;4.25;;;23.30;51.80;;;;;;5114994;28;20193;-57
2023/07/21 09:48:28;;;;;;;6.18;4.10;;;23.30;52.00;;;;;;5114725;28;20186;-58
2023/07/21 09:50:58;;;;;;;6.82;4.35;;;23.30;51.80;;;;;;5098794;28;20249;-56
2023/07/21 09:53:30;;;;;;;5.32;4.00;;;23.20;51.70;;;;;;5088199;28;20252;-55
2023/07/21 09:56:01;;;;;;;5.97;3.88;;;23.20;51.70;;;;;;5107122;28;20198;-56
2023/07/21 09:58:30;;;;;;;6.10;4.25;;;23.20;51.60;;;;;;5094886;28;20191;-56
2023/07/21 10:01:02;;;;;;;7.13;4.30;;;23.30;51.70;;;;;;5092664;28;20194;-56
2023/07/21 10:03:29;;;;;;;5.97;4.30;;;23.30;51.60;;;;;;5094840;28;20247;-58
2023/07/21 10:05:57;;;;;;;7.88;4.43;;;23.30;51.70;;;;;;5087394;28;20194;-57
2023/07/21 10:08:27;;;;;;;7.00;4.60;;;23.20;51.50;;;;;;5105692;28;20233;-57
2023/07/21 10:10:58;;;;;;;8.18;4.30;;;23.30;51.50;;;;;;5114163;28;20209;-57
2023/07/21 10:13:29;;;;;;;7.80;4.30;;;23.30;51.40;;;;;;5103077;28;20210;-54
2023/07/21 10:16:01;;;;;;;5.97;4.40;;;23.30;51.30;;;;;;5096936;28;20681;-54
2023/07/21 10:18:28;;;;;;;10.52;4.28;;;23.30;51.30;;;;;;5113016;28;20279;-53
2023/07/21 10:20:57;;;;;;;6.65;4.45;;;23.30;51.30;;;;;;5112003;28;20220;-56
2023/07/21 10:23:30;;;;;;;5.38;4.22;;;23.20;51.30;;;;;;5106061;28;20220;-58
2023/07/21 10:26:01;;;;;;;10.95;4.65;;;23.30;51.30;;;;;;5101991;28;20221;-56
2023/07/21 10:28:43;;;;;;;4.60;3.78;;;23.30;51.30;;;;;;5100720;28;20683;-56
2023/07/21 10:31:32;;;;;;;5.85;4.15;;;23.30;51.20;;;;;;5091333;28;20233;-58
2023/07/21 10:34:03;;;;;;;6.93;4.90;;;23.30;51.10;;;;;;5102299;28;20214;-57
2023/07/21 10:36:45;;;;;;;6.68;5.20;;;23.30;49.40;;;;;;5097937;28;20656;-58
2023/07/21 10:39:19;;;;;;;11.88;8.85;;;23.10;48.70;;;;;;5090628;28;20190;-58
2023/07/21 10:41:49;;;;;;;10.40;8.57;;;22.80;47.60;;;;;;5103650;28;20271;-58
2023/07/21 10:44:16;;;;;;;10.93;8.65;;;22.40;46.80;;;;;;5103133;28;20537;-57
2023/07/21 10:46:45;;;;;;;13.15;10.40;;;22.20;46.40;;;;;;5102469;28;20316;-57
2023/07/21 10:49:13;;;;;;;19.58;13.00;;;22.00;47.20;;;;;;5103378;28;20489;-60
2023/07/21 10:51:42;;;;;;;21.05;15.63;;;21.90;46.90;;;;;;5101251;28;20233;-60
2023/07/21 10:54:10;;;;;;;16.02;13.05;;;21.80;47.40;;;;;;5100668;28;20212;-56
2023/07/21 10:56:40;;;;;;;21.08;18.73;;;21.80;46.20;;;;;;5096651;28;20753;-54
2023/07/21 10:59:10;;;;;;;19.67;15.98;;;21.80;47.40;;;;;;5098133;28;21000;-56
2023/07/21 11:01:41;;;;;;;22.23;19.83;;;21.80;46.20;;;;;;5101127;28;20694;-57
2023/07/21 11:04:10;;;;;;;20.60;16.65;;;21.80;47.10;;;;;;5103878;27;20193;-56
2023/07/21 11:06:41;;;;;;;32.72;29.05;;;21.70;46.30;;;;;;5124712;27;20223;-57
2023/07/21 11:09:11;;;;;;;23.38;18.55;;;21.70;47.60;;;;;;5130338;27;20221;-57
2023/07/21 11:11:42;;;;;;;21.90;17.65;;;21.70;47.60;;;;;;5130012;27;20580;-56
2023/07/21 11:14:14;;;;;;;30.08;26.60;;;21.60;47.50;;;;;;5129649;27;20238;-54
2023/07/21 11:16:45;;;;;;;33.45;23.70;;;21.60;47.60;;;;;;5121629;27;20217;-56
2023/07/21 11:19:12;;;;;;;27.27;22.85;;;21.60;47.70;;;;;;5109298;28;20277;-57
2023/07/21 11:21:40;;;;;;;28.38;24.13;;;21.60;47.70;;;;;;5106904;28;20274;-57
2023/07/21 11:24:08;;;;;;;27.23;22.48;;;21.50;47.40;;;;;;5108739;28;20188;-57
2023/07/21 11:26:36;;;;;;;30.98;27.27;;;21.50;46.90;;;;;;5118910;27;20182;-57
2023/07/21 11:29:06;;;;;;;31.88;25.88;;;21.40;47.40;;;;;;5108319;28;20262;-57
2023/07/21 11:31:35;;;;;;;31.25;25.83;;;21.40;47.70;;;;;;5112005;27;20702;-57
2023/07/21 11:34:02;;;;;;;45.85;32.72;;;21.40;47.70;;;;;;5098430;28;20209;-58
2023/07/21 11:36:31;;;;;;;86.57;61.65;;;21.40;48.20;;;;;;5092522;27;20282;-57
2023/07/21 11:39:00;;;;;;;105.35;70.75;;;21.40;49.00;;;;;;5093468;28;20198;-57
2023/07/21 11:41:48;;;;;;;66.60;44.85;;;21.50;48.00;;;;;;5105783;28;20205;-57
2023/07/21 11:44:22;;;;;;;58.47;41.35;;;21.40;49.80;;;;;;5108341;28;20233;-56
2023/07/21 11:47:04;;;;;;;53.35;40.58;;;21.40;50.80;;;;;;5108268;28;20224;-57
2023/07/21 11:49:32;;;;;;;53.75;41.13;;;21.50;50.40;;;;;;5107031;28;20193;-57
2023/07/21 11:52:02;;;;;;;71.75;51.13;;;21.50;50.50;;;;;;5124655;27;20338;-59
2023/07/21 11:54:31;;;;;;;46.80;33.33;;;21.60;50.70;;;;;;5120085;27;20562;-59
2023/07/21 11:56:59;;;;;;;39.70;29.35;;;21.60;51.00;;;;;;5100564;27;20245;-61
2023/07/21 11:59:28;;;;;;;34.03;22.48;;;21.60;50.70;;;;;;5103110;28;20189;-58
2023/07/21 12:01:57;;;;;;;25.95;18.27;;;21.70;49.50;;;;;;5105928;28;20224;-60
2023/07/21 12:04:24;;;;;;;24.35;14.73;;;21.60;49.60;;;;;;5105597;28;20193;-61
2023/07/21 12:06:53;;;;;;;21.70;15.85;;;21.60;50.50;;;;;;5101705;28;20268;-56
2023/07/21 12:09:20;;;;;;;24.10;16.80;;;21.60;50.40;;;;;;5098473;27;20309;-56
2023/07/21 12:11:48;;;;;;;19.63;13.88;;;21.70;50.40;;;;;;5094323;28;20262;-59
2023/07/21 12:14:15;;;;;;;19.30;12.98;;;21.80;50.20;;;;;;5093887;28;20197;-60
2023/07/21 12:16:45;;;;;;;20.27;12.88;;;21.90;50.30;;;;;;5097177;28;20272;-59
2023/07/21 12:19:18;;;;;;;21.45;13.35;;;22.00;50.50;;;;;;5071082;28;21076;-59
2023/07/21 12:21:49;;;;;;;18.42;11.18;;;22.10;50.50;;;;;;5095148;28;20760;-51
2023/07/21 12:24:18;;;;;;;14.35;9.02;;;22.10;50.10;;;;;;5099817;27;20926;-57
2023/07/21 12:26:49;;;;;;;19.65;9.55;;;22.10;49.30;;;;;;5103302;28;20244;-55
2023/07/21 12:29:25;;;;;;;13.30;8.15;;;22.10;50.20;;;;;;5020704;28;20725;-58
2023/07/21 12:31:52;;;;;;;11.35;8.02;;;22.00;49.60;;;;;;5104115;28;20277;-55
2023/07/21 12:34:21;;;;;;;11.68;8.25;;;22.00;49.50;;;;;;5094414;28;20230;-56
2023/07/21 12:36:48;;;;;;;8.82;7.38;;;22.00;49.60;;;;;;5101496;28;20753;-53
2023/07/21 12:39:15;;;;;;;11.15;7.10;;;22.00;49.10;;;;;;5103707;28;20757;-53
2023/07/21 12:41:42;;;;;;;17.02;9.80;;;22.10;49.50;;;;;;5095579;28;20291;-57
2023/07/21 12:44:09;;;;;;;13.52;7.50;;;22.10;49.00;;;;;;5102544;28;20301;-58
2023/07/21 12:46:37;;;;;;;13.40;6.78;;;22.10;48.90;;;;;;5107519;28;20186;-54
2023/07/21 12:49:05;;;;;;;10.93;6.90;;;22.20;48.20;;;;;;5110900;28;20224;-59
2023/07/21 12:51:33;;;;;;;11.98;7.10;;;22.10;48.10;;;;;;5098921;28;20233;-59
2023/07/21 12:54:00;;;;;;;8.25;6.45;;;22.10;48.40;;;;;;5102772;28;20317;-51
2023/07/21 12:56:27;;;;;;;9.35;7.40;;;22.00;48.70;;;;;;5094213;28;20289;-56
2023/07/21 12:58:54;;;;;;;11.90;6.80;;;22.10;49.10;;;;;;5101156;28;20312;-57
2023/07/21 13:01:21;;;;;;;10.25;6.63;;;22.10;49.80;;;;;;5105502;28;20243;-54
2023/07/21 13:03:49;;;;;;;10.05;6.07;;;22.10;49.70;;;;;;5105141;28;20305;-58
2023/07/21 13:06:16;;;;;;;9.20;5.97;;;22.10;50.10;;;;;;5102701;28;20280;-58
2023/07/21 13:08:45;;;;;;;8.63;6.65;;;22.10;50.10;;;;;;5100659;28;20274;-56
2023/07/21 13:11:12;;;;;;;10.93;6.40;;;22.20;50.20;;;;;;5100007;28;20216;-55
2023/07/21 13:13:40;;;;;;;10.25;5.97;;;22.20;50.20;;;;;;5097008;28;20308;-55
2023/07/21 13:16:08;;;;;;;12.05;6.15;;;22.20;49.80;;;;;;5100145;28;20524;-59
2023/07/21 13:18:35;;;;;;;11.32;6.95;;;22.30;50.10;;;;;;5120250;27;20216;-57
2023/07/21 13:21:02;;;;;;;10.43;6.47;;;22.30;49.30;;;;;;5107593;27;20209;-56
2023/07/21 13:23:29;;;;;;;9.07;6.35;;;22.20;49.20;;;;;;5109081;27;20217;-57
2023/07/21 13:25:59;;;;;;;11.32;6.32;;;22.20;49.20;;;;;;5110854;27;20898;-55
2023/07/21 13:28:26;;;;;;;10.93;6.20;;;22.30;49.50;;;;;;5104843;27;20336;-58
2023/07/21 13:30:53;;;;;;;10.23;6.25;;;22.30;49.40;;;;;;5126682;27;20276;-59
2023/07/21 13:33:21;;;;;;;11.40;8.38;;;22.40;49.40;;;;;;5127029;27;20220;-59
2023/07/21 13:35:48;;;;;;;10.60;7.65;;;22.40;49.20;;;;;;5121931;27;20215;-63
2023/07/21 13:38:15;;;;;;;10.27;6.97;;;22.40;49.10;;;;;;5108752;27;20291;-62
2023/07/21 13:40:42;;;;;;;12.68;6.43;;;22.40;48.30;;;;;;5105737;27;20204;-64
2023/07/21 13:43:11;;;;;;;8.88;6.28;;;22.50;48.20;;;;;;5108297;27;20308;-60
2023/07/21 13:45:38;;;;;;;10.77;6.32;;;22.40;48.30;;;;;;5108067;27;20204;-58
2023/07/21 13:48:05;;;;;;;8.13;5.75;;;22.40;48.60;;;;;;5103673;27;20880;-57
2023/07/21 13:50:32;;;;;;;10.18;5.93;;;22.50;47.40;;;;;;5108173;27;20192;-59
2023/07/21 13:52:59;;;;;;;8.75;5.57;;;22.40;47.00;;;;;;5109717;27;20272;-58
2023/07/21 13:55:28;;;;;;;7.82;5.95;;;22.40;46.50;;;;;;5107847;27;20718;-56
2023/07/21 13:57:55;;;;;;;14.18;9.00;;;22.40;46.70;;;;;;5107743;27;20272;-58
2023/07/21 14:00:23;;;;;;;11.52;7.30;;;22.40;46.80;;;;;;5110028;27;20232;-59
2023/07/21 14:02:50;;;;;;;7.93;6.25;;;22.40;47.00;;;;;;5103375;27;20293;-59
2023/07/21 14:05:18;;;;;;;7.93;6.30;;;22.50;46.60;;;;;;5103166;27;20630;-59
2023/07/21 14:07:45;;;;;;;11.45;5.65;;;22.50;46.80;;;;;;5108832;27;20193;-59
2023/07/21 14:10:12;;;;;;;7.90;5.50;;;22.40;46.90;;;;;;5110703;27;20301;-58
2023/07/21 14:12:40;;;;;;;9.70;6.13;;;22.40;47.40;;;;;;5101990;27;20219;-59
2023/07/21 14:15:09;;;;;;;10.13;5.72;;;22.40;47.80;;;;;;5106742;27;20319;-57
2023/07/21 14:17:39;;;;;;;13.23;5.93;;;22.40;48.10;;;;;;5107698;27;20191;-58
2023/07/21 14:20:13;;;;;;;10.30;6.07;;;22.40;48.10;;;;;;5101768;28;20786;-58
2023/07/21 14:22:41;;;;;;;11.55;6.15;;;22.40;48.30;;;;;;5101608;28;20197;-60
2023/07/21 14:25:10;;;;;;;11.70;5.78;;;22.40;48.50;;;;;;5092355;27;20308;-59
2023/07/21 14:27:38;;;;;;;9.73;5.50;;;22.40;48.60;;;;;;5069078;28;20250;-57
2023/07/21 14:30:09;;;;;;;7.25;5.70;;;22.40;48.70;;;;;;5106413;27;20270;-52
2023/07/21 14:32:44;;;;;;;7.53;5.05;;;22.50;48.70;;;;;;5100833;27;20224;-57
2023/07/21 14:35:11;;;;;;;8.70;5.20;;;22.40;48.80;;;;;;5059569;28;20226;-55
2023/07/21 14:37:38;;;;;;;11.60;5.50;;;22.40;48.60;;;;;;5067657;28;20202;-57
2023/07/21 14:40:11;;;;;;;10.43;5.65;;;22.30;48.80;;;;;;5067459;28;21006;-59
2023/07/21 14:42:38;;;;;;;7.38;5.18;;;22.20;49.10;;;;;;5061433;28;20199;-58
2023/07/21 14:45:06;;;;;;;8.77;5.28;;;22.20;50.00;;;;;;5068989;28;20250;-57
2023/07/21 14:47:33;;;;;;;8.00;5.60;;;22.20;49.10;;;;;;5061528;28;20230;-55
2023/07/21 14:50:02;;;;;;;11.38;5.80;;;22.20;49.20;;;;;;5060176;28;20306;-57
2023/07/21 14:52:30;;;;;;;11.45;5.50;;;22.10;49.70;;;;;;5060175;28;20242;-57
2023/07/21 14:54:57;;;;;;;8.50;5.22;;;22.10;49.30;;;;;;5062480;28;20302;-53
2023/07/21 14:57:24;;;;;;;9.23;6.20;;;22.10;49.50;;;;;;5062678;28;20676;-56
2023/07/21 14:59:51;;;;;;;10.23;5.13;;;22.10;49.60;;;;;;5059532;28;20218;-56
2023/07/21 15:02:19;;;;;;;6.80;4.90;;;22.10;49.50;;;;;;5061179;28;20760;-59
2023/07/21 15:04:46;;;;;;;10.43;5.18;;;22.10;49.70;;;;;;5061436;28;20551;-59
2023/07/21 15:07:15;;;;;;;9.50;5.05;;;22.00;49.50;;;;;;5100832;27;20697;-59
2023/07/21 15:09:43;;;;;;;6.47;5.03;;;21.90;49.10;;;;;;5107419;27;20220;-58
2023/07/21 15:12:10;;;;;;;7.35;4.70;;;21.80;49.20;;;;;;5097418;27;20324;-56
2023/07/21 15:14:37;;;;;;;7.97;5.18;;;21.80;49.50;;;;;;5101591;27;20284;-57
2023/07/21 15:17:05;;;;;;;8.10;4.93;;;21.70;49.70;;;;;;5100087;27;20244;-56
2023/07/21 15:19:32;;;;;;;7.57;4.53;;;21.70;49.90;;;;;;5104950;27;20193;-56
2023/07/21 15:22:00;;;;;;;8.13;5.13;;;21.80;50.00;;;;;;5100175;27;20959;-56
2023/07/21 15:24:28;;;;;;;7.40;4.95;;;21.90;50.00;;;;;;5105170;27;20734;-55
2023/07/21 15:26:57;;;;;;;7.25;4.35;;;22.00;49.60;;;;;;5108728;27;20308;-57
2023/07/21 15:29:26;;;;;;;9.20;4.88;;;22.10;49.30;;;;;;5105076;27;20603;-56
2023/07/21 15:31:53;;;;;;;7.30;4.75;;;22.00;49.10;;;;;;5105189;27;20231;-60
2023/07/21 15:34:20;;;;;;;7.07;4.60;;;22.00;49.40;;;;;;5100997;28;20224;-59
2023/07/21 15:36:47;;;;;;;4.85;4.30;;;22.00;49.50;;;;;;5113661;27;20216;-59
2023/07/21 15:39:14;;;;;;;7.03;4.38;;;22.00;49.10;;;;;;5105101;28;20988;-59
2023/07/21 15:41:43;;;;;;;7.07;4.60;;;22.10;48.90;;;;;;5112821;27;20792;-57
2023/07/21 15:44:10;;;;;;;10.82;4.75;;;22.10;49.00;;;;;;5112953;27;20207;-58
2023/07/21 15:46:37;;;;;;;8.95;4.93;;;22.10;48.90;;;;;;5108819;27;20315;-57
2023/07/21 15:49:04;;;;;;;7.03;4.55;;;22.00;49.10;;;;;;5103621;28;20276;-57
2023/07/21 15:51:31;;;;;;;9.27;4.63;;;21.90;49.50;;;;;;5110734;27;20298;-55
2023/07/21 15:53:59;;;;;;;8.93;4.13;;;22.00;49.50;;;;;;5109483;27;20192;-56
2023/07/21 15:56:26;;;;;;;10.65;4.60;;;22.00;49.80;;;;;;5112777;27;20229;-55
2023/07/21 15:58:54;;;;;;;7.32;4.40;;;22.20;49.80;;;;;;5105235;27;20216;-57
2023/07/21 16:01:21;;;;;;;7.78;4.55;;;22.40;49.70;;;;;;5094691;27;20222;-57
2023/07/21 16:03:48;;;;;;;4.88;3.72;;;22.60;49.50;;;;;;5110089;28;20240;-57
2023/07/21 16:06:15;;;;;;;6.07;3.88;;;22.80;49.30;;;;;;5109638;28;20243;-56
2023/07/21 16:08:43;;;;;;;8.30;4.70;;;22.90;48.90;;;;;;5111005;28;20568;-57
2023/07/21 16:11:10;;;;;;;14.50;4.38;;;23.00;48.90;;;;;;5112000;28;20717;-55
2023/07/21 16:13:38;;;;;;;23.13;5.25;;;23.10;48.80;;;;;;5111745;28;20240;-57
2023/07/21 16:16:07;;;;;;;15.05;4.50;;;23.10;48.80;;;;;;5102186;28;20596;-54
2023/07/21 16:18:34;;;;;;;12.52;4.38;;;23.10;48.70;;;;;;5102846;28;20258;-55
2023/07/21 16:21:01;;;;;;;12.90;4.85;;;23.20;48.80;;;;;;5111831;28;20220;-57
2023/07/21 16:23:28;;;;;;;13.35;4.28;;;23.20;48.80;;;;;;5111863;28;20196;-55
2023/07/21 16:25:55;;;;;;;13.88;4.20;;;23.30;48.90;;;;;;5111808;28;20626;-58
2023/07/21 16:28:22;;;;;;;5.00;3.53;;;23.30;48.90;;;;;;5110736;28;20234;-57
2023/07/21 16:30:53;;;;;;;17.55;3.83;;;23.30;48.80;;;;;;5110191;28;20225;-55
2023/07/21 16:33:21;;;;;;;10.80;4.03;;;23.30;48.80;;;;;;5103023;28;20221;-55
2023/07/21 16:35:51;;;;;;;10.65;3.97;;;23.30;48.90;;;;;;5111098;28;20216;-56
2023/07/21 16:38:18;;;;;;;5.75;3.72;;;23.30;48.80;;;;;;5110350;28;20718;-56
2023/07/21 16:40:44;;;;;;;8.13;3.53;;;23.30;48.70;;;;;;5111196;28;20197;-55
2023/07/21 16:43:11;;;;;;;5.63;3.85;;;23.40;48.70;;;;;;5108407;28;20637;-55
2023/07/21 16:45:43;;;;;;;5.85;3.83;;;23.40;48.70;;;;;;5109113;28;20193;-54
2023/07/21 16:48:10;;;;;;;9.88;3.70;;;23.40;48.60;;;;;;5112232;28;20654;-56
2023/07/21 16:50:39;;;;;;;4.28;3.17;;;23.40;49.30;;;;;;5112653;28;20193;-56
2023/07/21 16:53:06;;;;;;;6.15;4.03;;;23.40;48.60;;;;;;5116761;28;20277;-56
2023/07/21 16:55:33;;;;;;;7.60;3.92;;;23.40;48.70;;;;;;5116803;28;20200;-55
2023/07/21 16:58:00;;;;;;;8.18;3.45;;;23.40;48.70;;;;;;5116930;28;20619;-54
2023/07/21 17:00:27;;;;;;;4.75;3.30;;;23.40;48.60;;;;;;5116671;28;20217;-55
2023/07/21 17:02:53;;;;;;;5.65;3.33;;;23.40;48.70;;;;;;5116857;28;20266;-56
2023/07/21 17:05:20;;;;;;;8.95;3.30;;;23.40;48.80;;;;;;5116836;28;20268;-55
2023/07/21 17:07:49;;;;;;;4.97;3.05;;;23.40;48.80;;;;;;5116745;28;20260;-57
2023/07/21 17:10:15;;;;;;;3.13;2.53;;;23.40;48.80;;;;;;5116464;28;20190;-56
2023/07/21 17:12:44;;;;;;;5.82;3.22;;;23.30;48.70;;;;;;5116646;28;20271;-57
2023/07/21 17:15:12;;;;;;;5.97;3.05;;;23.30;48.70;;;;;;5116163;28;20189;-56
2023/07/21 17:17:39;;;;;;;6.07;3.53;;;23.30;48.70;;;;;;5116176;28;20705;-57
2023/07/21 17:20:11;;;;;;;3.75;3.10;;;23.30;48.70;;;;;;5116247;28;20212;-56
2023/07/21 17:22:42;;;;;;;7.57;2.90;;;23.30;49.40;;;;;;5116392;28;20274;-57
2023/07/21 17:25:10;;;;;;;3.58;2.85;;;23.30;48.80;;;;;;5116283;28;20220;-55
2023/07/21 17:27:37;;;;;;;4.70;2.85;;;23.30;48.90;;;;;;5116160;28;20252;-63
2023/07/21 17:30:05;;;;;;;3.67;2.70;;;23.30;48.90;;;;;;5115898;28;20605;-62
2023/07/21 17:32:32;;;;;;;3.78;2.75;;;23.30;48.90;;;;;;5116210;28;20269;-61
2023/07/21 17:34:59;;;;;;;4.97;2.50;;;23.30;48.90;;;;;;5116037;28;20185;-59
2023/07/21 17:37:26;;;;;;;2.90;2.10;;;23.30;48.90;;;;;;5116076;28;20217;-57
2023/07/21 17:39:53;;;;;;;3.22;2.70;;;23.30;48.90;;;;;;5115948;28;20197;-57
2023/07/21 17:42:22;;;;;;;5.68;2.83;;;23.30;48.90;;;;;;5116020;28;20248;-56
2023/07/21 17:44:48;;;;;;;4.50;2.42;;;23.30;48.90;;;;;;5115888;28;20620;-55
2023/07/21 17:47:15;;;;;;;4.57;2.88;;;23.30;48.90;;;;;;5115946;28;20244;-57
2023/07/21 17:49:42;;;;;;;2.80;2.40;;;23.20;48.90;;;;;;5115812;28;20189;-56
2023/07/21 17:52:10;;;;;;;3.67;2.40;;;23.30;48.90;;;;;;5115691;28;20304;-56
2023/07/21 17:54:37;;;;;;;3.60;2.58;;;23.30;48.90;;;;;;5115396;28;20189;-57
2023/07/21 17:57:05;;;;;;;5.18;2.13;;;23.20;48.90;;;;;;5115680;28;20249;-57
2023/07/21 17:59:34;;;;;;;3.60;2.40;;;23.20;48.90;;;;;;5115613;28;20185;-57
2023/07/21 18:02:01;;;;;;;2.88;2.10;;;23.30;48.90;;;;;;5115214;28;20252;-56
2023/07/21 18:04:27;;;;;;;3.10;2.00;;;23.30;49.00;;;;;;5115271;28;20654;-56
2023/07/21 18:06:54;;;;;;;3.45;2.22;;;23.30;48.90;;;;;;5115269;28;20217;-56
2023/07/21 18:09:21;;;;;;;2.63;2.13;;;23.20;48.90;;;;;;5115354;28;20219;-57
2023/07/21 18:11:48;;;;;;;3.97;2.40;;;23.20;49.00;;;;;;5115050;28;20295;-57
2023/07/21 18:14:15;;;;;;;3.20;1.98;;;23.20;49.00;;;;;;5115280;28;20251;-56
2023/07/21 18:16:44;;;;;;;2.33;2.13;;;23.20;49.10;;;;;;5115267;28;20217;-56
2023/07/21 18:19:11;;;;;;;3.72;2.17;;;23.20;49.10;;;;;;5115152;28;20220;-57
2023/07/21 18:21:38;;;;;;;2.97;2.28;;;23.20;49.10;;;;;;5114844;28;20274;-55
2023/07/21 18:24:06;;;;;;;2.80;1.85;;;23.20;49.10;;;;;;5115134;28;20189;-58
2023/07/21 18:26:33;;;;;;;3.05;1.85;;;23.20;49.10;;;;;;5115147;28;20274;-57
2023/07/21 18:29:00;;;;;;;3.38;2.00;;;23.20;49.10;;;;;;5114859;28;20221;-58
2023/07/21 18:31:27;;;;;;;3.70;2.00;;;23.20;49.20;;;;;;5114988;28;20212;-56
2023/07/21 18:33:55;;;;;;;4.18;2.08;;;23.20;49.20;;;;;;5114813;28;20603;-55
2023/07/21 18:36:22;;;;;;;3.20;1.98;;;23.20;49.30;;;;;;5114645;28;20266;-57
2023/07/21 18:38:49;;;;;;;2.67;1.70;;;23.20;49.20;;;;;;5114457;28;20787;-56
2023/07/21 18:41:18;;;;;;;2.78;1.92;;;23.20;49.30;;;;;;5114666;28;20220;-55
2023/07/21 18:43:45;;;;;;;4.20;2.17;;;23.20;49.40;;;;;;5114748;28;20272;-57
2023/07/21 18:46:12;;;;;;;3.40;1.88;;;23.20;49.30;;;;;;5114617;28;20335;-57
2023/07/21 18:48:39;;;;;;;3.10;1.83;;;23.20;49.40;;;;;;5114478;28;20250;-57
2023/07/21 18:51:07;;;;;;;2.90;2.00;;;23.10;49.30;;;;;;5114519;28;20220;-56
2023/07/21 18:53:41;;;;;;;5.10;1.70;;;23.20;49.40;;;;;;5114528;28;20296;-55
2023/07/21 18:56:08;;;;;;;4.22;2.03;;;23.10;49.40;;;;;;5114139;28;20614;-58
2023/07/21 18:58:35;;;;;;;2.42;2.00;;;23.20;49.60;;;;;;5114121;28;20715;-56
2023/07/21 19:01:02;;;;;;;2.33;1.85;;;23.20;49.60;;;;;;5114569;28;20231;-58
2023/07/21 19:03:29;;;;;;;3.67;1.88;;;23.10;49.40;;;;;;5114289;28;20192;-56
2023/07/21 19:05:56;;;;;;;2.72;1.98;;;23.10;49.60;;;;;;5114302;28;20189;-58
2023/07/21 19:08:24;;;;;;;4.90;1.85;;;23.10;49.60;;;;;;5114357;28;20244;-56
2023/07/21 19:10:51;;;;;;;2.67;1.67;;;23.10;49.60;;;;;;5114201;27;20221;-57
2023/07/21 19:13:18;;;;;;;3.08;1.67;;;23.10;49.60;;;;;;5113978;28;20228;-57
2023/07/21 19:15:45;;;;;;;4.53;1.90;;;23.10;49.70;;;;;;5113649;28;20224;-57
2023/07/21 19:18:12;;;;;;;2.63;1.80;;;23.10;49.70;;;;;;5114227;28;20296;-57
2023/07/21 19:20:40;;;;;;;2.53;1.85;;;23.10;49.70;;;;;;5113976;28;20268;-58
2023/07/21 19:23:08;;;;;;;3.10;1.88;;;23.10;49.70;;;;;;5114147;28;20259;-54
2023/07/21 19:25:36;;;;;;;2.85;1.90;;;23.10;49.70;;;;;;5113633;28;20189;-56
2023/07/21 19:28:04;;;;;;;2.72;1.98;;;23.10;49.70;;;;;;5113746;28;20209;-57
2023/07/21 19:30:32;;;;;;;5.18;1.73;;;23.10;49.80;;;;;;5113553;28;20736;-57
2023/07/21 19:32:58;;;;;;;3.33;1.85;;;23.10;49.80;;;;;;5113581;28;20718;-55
2023/07/21 19:35:26;;;;;;;2.88;1.88;;;23.10;49.90;;;;;;5113769;28;20220;-55
2023/07/21 19:37:52;;;;;;;3.25;1.70;;;23.10;49.90;;;;;;5113805;28;20213;-57
2023/07/21 19:40:19;;;;;;;2.03;1.48;;;23.10;50.00;;;;;;5113645;28;20228;-54
2023/07/21 19:42:48;;;;;;;4.10;2.00;;;23.10;50.00;;;;;;5112141;28;20221;-56
2023/07/21 19:45:15;;;;;;;2.22;1.75;;;23.00;49.90;;;;;;5113239;28;20246;-55
2023/07/21 19:47:42;;;;;;;2.38;1.90;;;23.10;50.00;;;;;;5113588;28;20213;-53
2023/07/21 19:50:09;;;;;;;3.45;1.90;;;23.00;50.00;;;;;;5113209;28;20186;-55
2023/07/21 19:52:36;;;;;;;3.33;1.80;;;23.00;50.10;;;;;;5113445;28;20217;-52
2023/07/21 19:55:04;;;;;;;2.70;1.48;;;23.00;50.10;;;;;;5113421;28;20322;-56
2023/07/21 19:57:32;;;;;;;3.08;1.63;;;23.00;50.20;;;;;;5113001;28;20642;-55
2023/07/21 20:00:00;;;;;;;2.60;1.45;;;23.00;50.20;;;;;;5113033;28;20650;-56
2023/07/21 20:02:28;;;;;;;1.77;1.40;;;23.00;50.20;;;;;;5113081;28;20694;-56
2023/07/21 20:04:55;;;;;;;1.75;1.50;;;23.00;50.20;;;;;;5113224;28;20189;-56
2023/07/21 20:07:22;;;;;;;3.63;1.67;;;23.00;50.20;;;;;;5113198;28;20221;-56
2023/07/21 20:09:49;;;;;;;3.28;1.67;;;23.00;50.20;;;;;;5113151;28;20243;-55
2023/07/21 20:12:17;;;;;;;5.00;1.77;;;23.00;50.30;;;;;;5113188;28;20213;-56
2023/07/21 20:14:44;;;;;;;2.60;1.70;;;23.00;50.30;;;;;;5112646;28;20213;-56
2023/07/21 20:17:12;;;;;;;2.97;1.80;;;23.00;50.40;;;;;;5112684;28;20760;-56
2023/07/21 20:19:39;;;;;;;1.95;1.52;;;23.00;50.40;;;;;;5113023;28;20199;-58
2023/07/21 20:22:06;;;;;;;2.05;1.73;;;23.00;50.40;;;;;;5113132;28;20249;-56
2023/07/21 20:24:41;;;;;;;2.50;1.60;;;23.00;50.50;;;;;;5112932;28;20242;-55
2023/07/21 20:27:08;;;;;;;2.38;1.27;;;22.90;50.50;;;;;;5112825;28;20222;-55
2023/07/21 20:29:35;;;;;;;3.53;1.52;;;22.90;50.50;;;;;;5112663;28;20224;-57
2023/07/21 20:32:02;;;;;;;2.83;1.50;;;22.90;50.50;;;;;;5112759;28;20702;-54
2023/07/21 20:34:30;;;;;;;2.83;1.85;;;22.90;50.50;;;;;;5113045;28;20225;-55
2023/07/21 20:36:57;;;;;;;3.53;1.40;;;22.90;50.50;;;;;;5113053;28;20269;-54
2023/07/21 20:39:24;;;;;;;1.90;1.40;;;22.90;50.60;;;;;;5112483;28;20638;-56
2023/07/21 20:41:51;;;;;;;2.10;1.38;;;22.90;50.60;;;;;;5112794;28;20248;-55
2023/07/21 20:44:18;;;;;;;2.42;1.40;;;22.80;50.60;;;;;;5112462;28;20224;-56
2023/07/21 20:46:45;;;;;;;3.80;2.10;;;22.80;50.70;;;;;;5112730;28;20251;-55
2023/07/21 20:49:12;;;;;;;3.13;1.40;;;22.80;50.70;;;;;;5112624;28;20242;-57
2023/07/21 20:51:41;;;;;;;2.63;1.70;;;22.80;50.80;;;;;;5112681;28;20296;-55
2023/07/21 20:54:08;;;;;;;2.20;1.60;;;22.80;50.80;;;;;;5112615;28;20593;-56
2023/07/21 20:56:35;;;;;;;3.65;1.55;;;22.80;50.90;;;;;;5112327;28;20248;-56
2023/07/21 20:59:03;;;;;;;1.88;1.50;;;22.80;50.90;;;;;;5112623;28;20190;-55
2023/07/21 21:01:31;;;;;;;2.70;1.55;;;22.80;50.90;;;;;;5112546;28;20276;-53
2023/07/21 21:03:58;;;;;;;2.70;1.48;;;22.80;50.90;;;;;;5112294;28;20192;-54
2023/07/21 21:06:25;;;;;;;3.45;1.92;;;22.80;51.00;;;;;;5112165;28;20220;-56
2023/07/21 21:08:54;;;;;;;3.67;1.63;;;22.80;51.00;;;;;;5112502;28;20189;-54
2023/07/21 21:11:21;;;;;;;2.90;1.40;;;22.70;50.90;;;;;;5112446;28;20272;-55
2023/07/21 21:13:48;;;;;;;2.45;1.63;;;22.80;51.00;;;;;;5112391;28;20212;-54
2023/07/21 21:16:15;;;;;;;3.38;1.50;;;22.80;51.00;;;;;;5112394;28;20272;-56
2023/07/21 21:18:42;;;;;;;3.92;1.88;;;22.80;51.10;;;;;;5112361;28;20182;-54